createdAt,value
2022-10-01T00:02:09.910Z,80.47
2022-10-01T00:04:39.744Z,80.31
2022-10-01T00:07:11.155Z,80.37
2022-10-01T00:09:39.565Z,80.30
2022-10-01T00:12:08.278Z,80.65
2022-10-01T00:14:39.347Z,80.57
2022-10-01T00:17:07.686Z,80.74
2022-10-01T00:19:36.079Z,80.63
2022-10-01T00:22:04.393Z,80.44
2022-10-01T00:24:32.769Z,80.67
2022-10-01T00:27:01.052Z,80.57
2022-10-01T00:29:32.043Z,80.99
2022-10-01T00:32:00.583Z,80.95
2022-10-01T00:34:28.993Z,81.56
2022-10-01T00:36:57.886Z,81.30
2022-10-01T00:39:26.314Z,81.31
2022-10-01T00:41:54.872Z,81.12
2022-10-01T00:44:35.625Z,81.19
2022-10-01T00:47:23.982Z,81.18
2022-10-01T00:49:59.301Z,81.97
2022-10-01T00:52:32.336Z,81.64
2022-10-01T00:55:43.661Z,81.91
2022-10-01T00:58:14.897Z,82.21
2022-10-01T01:00:43.529Z,82.02
2022-10-01T01:03:13.006Z,82.16
2022-10-01T01:05:41.549Z,82.23
2022-10-01T01:08:11.112Z,82.10
2022-10-01T01:11:04.685Z,81.89
2022-10-01T01:14:10.560Z,82.20
2022-10-01T01:16:49.849Z,82.03
2022-10-01T01:20:09.313Z,82.48
2022-10-01T01:22:46.665Z,81.83
2022-10-01T01:25:21.969Z,81.97
2022-10-01T01:28:20.017Z,82.07
2022-10-01T01:30:51.989Z,82.19
2022-10-01T01:33:22.523Z,82.36
2022-10-01T01:36:04.896Z,82.18
2022-10-01T01:38:43.331Z,82.10
2022-10-01T01:41:13.615Z,82.61
2022-10-01T01:43:46.087Z,83.08
2022-10-01T01:46:18.909Z,82.85
2022-10-01T01:48:51.365Z,83.11
2022-10-01T01:51:26.294Z,83.22
2022-10-01T01:53:54.794Z,83.07
2022-10-01T01:56:24.176Z,82.76
2022-10-01T01:58:57.546Z,83.00
2022-10-01T02:01:38.116Z,83.16
2022-10-01T02:04:20.783Z,83.15
2022-10-01T02:06:57.940Z,82.72
2022-10-01T02:09:58.431Z,83.22
2022-10-01T02:12:41.758Z,83.19
2022-10-01T02:15:27.809Z,82.83
2022-10-01T02:18:22.945Z,82.91
2022-10-01T02:21:20.819Z,82.64
2022-10-01T02:24:05.223Z,82.81
2022-10-01T02:26:37.697Z,83.63
2022-10-01T02:29:10.133Z,83.59
2022-10-01T02:31:40.017Z,83.43
2022-10-01T02:34:12.661Z,83.45
2022-10-01T02:36:42.707Z,83.90
2022-10-01T02:39:15.260Z,83.81
2022-10-01T02:41:46.172Z,83.74
2022-10-01T02:44:23.696Z,83.50
2022-10-01T02:47:03.202Z,83.46
2022-10-01T02:49:32.389Z,83.16
2022-10-01T02:52:13.304Z,83.57
2022-10-01T02:55:15.150Z,83.47
2022-10-01T02:57:43.958Z,83.72
2022-10-01T03:00:17.052Z,83.54
2022-10-01T03:02:45.395Z,83.42
2022-10-01T03:05:15.650Z,83.42
2022-10-01T03:07:44.532Z,83.30
2022-10-01T03:10:13.599Z,83.81
2022-10-01T03:12:44.386Z,83.66
2022-10-01T03:15:14.967Z,83.36
2022-10-01T03:17:43.510Z,83.17
2022-10-01T03:20:12.592Z,83.44
2022-10-01T03:22:40.841Z,83.29
2022-10-01T03:25:09.679Z,83.44
2022-10-01T03:27:38.445Z,83.34
2022-10-01T03:30:07.413Z,83.72
2022-10-01T03:32:35.932Z,83.79
2022-10-01T03:35:04.941Z,83.98
2022-10-01T03:37:33.400Z,84.73
2022-10-01T03:40:01.980Z,84.23
2022-10-01T03:42:30.313Z,84.14
2022-10-01T03:44:58.590Z,84.56
2022-10-01T03:47:26.889Z,84.52
2022-10-01T03:49:55.139Z,85.29
2022-10-01T03:52:23.539Z,85.18
2022-10-01T03:54:51.901Z,85.06
2022-10-01T03:57:20.195Z,84.56
2022-10-01T03:59:48.506Z,84.49
2022-10-01T04:02:17.008Z,84.66
2022-10-01T04:04:45.428Z,84.62
2022-10-01T04:07:13.709Z,84.63
2022-10-01T04:09:42.048Z,84.72
2022-10-01T04:12:10.721Z,84.81
2022-10-01T04:14:39.120Z,85.36
2022-10-01T04:17:07.484Z,85.11
2022-10-01T04:19:35.835Z,85.18
2022-10-01T04:22:04.154Z,84.97
2022-10-01T04:24:32.457Z,85.14
2022-10-01T04:27:00.790Z,85.00
2022-10-01T04:29:29.088Z,84.96
2022-10-01T04:31:58.414Z,85.06
2022-10-01T04:34:46.716Z,85.17
2022-10-01T04:37:15.040Z,85.69
2022-10-01T04:39:43.335Z,85.46
2022-10-01T04:42:15.125Z,85.75
2022-10-01T04:44:43.414Z,85.37
2022-10-01T04:47:11.811Z,85.43
2022-10-01T04:49:40.168Z,85.42
2022-10-01T04:52:08.480Z,85.95
2022-10-01T04:54:36.791Z,86.49
2022-10-01T04:57:05.092Z,86.07
2022-10-01T04:59:33.813Z,85.66
2022-10-01T05:02:02.202Z,85.82
2022-10-01T05:04:30.580Z,86.79
2022-10-01T05:06:58.921Z,87.01
2022-10-01T05:09:27.286Z,87.08
2022-10-01T05:11:55.605Z,86.78
2022-10-01T05:14:25.103Z,86.84
2022-10-01T05:16:53.414Z,87.16
2022-10-01T05:19:25.284Z,86.82
2022-10-01T05:21:56.853Z,86.93
2022-10-01T05:24:25.681Z,86.84
2022-10-01T05:26:54.458Z,87.13
2022-10-01T05:29:23.262Z,86.77
2022-10-01T05:31:51.661Z,86.35
2022-10-01T05:34:20.084Z,86.54
2022-10-01T05:36:48.394Z,86.52
2022-10-01T05:39:16.716Z,86.37
2022-10-01T05:41:45.047Z,86.50
2022-10-01T05:44:13.388Z,86.43
2022-10-01T05:46:43.878Z,86.62
2022-10-01T05:49:12.198Z,86.60
2022-10-01T05:51:40.510Z,86.53
2022-10-01T05:54:08.889Z,86.67
2022-10-01T05:56:37.290Z,86.27
2022-10-01T05:59:06.040Z,86.46
2022-10-01T06:01:34.512Z,86.59
2022-10-01T06:04:03.363Z,86.37
2022-10-01T06:06:31.692Z,85.37
2022-10-01T06:09:00.113Z,85.07
2022-10-01T06:11:29.007Z,84.28
2022-10-01T06:13:57.415Z,83.40
2022-10-01T06:16:25.905Z,83.04
2022-10-01T06:18:57.741Z,82.08
2022-10-01T06:21:27.107Z,80.89
2022-10-01T06:23:55.477Z,79.83
2022-10-01T06:26:24.805Z,79.23
2022-10-01T06:28:53.129Z,77.36
2022-10-01T06:31:22.329Z,77.17
2022-10-01T06:33:50.776Z,74.86
2022-10-01T06:36:19.111Z,74.59
2022-10-01T06:38:50.854Z,73.31
2022-10-01T06:41:20.121Z,72.87
2022-10-01T06:43:49.445Z,72.55
2022-10-01T06:46:17.782Z,72.69
2022-10-01T06:48:46.136Z,72.90
2022-10-01T06:51:14.425Z,73.01
2022-10-01T06:53:42.688Z,72.40
2022-10-01T06:56:10.965Z,71.71
2022-10-01T06:58:42.770Z,71.30
2022-10-01T07:01:11.380Z,69.24
2022-10-01T07:03:39.846Z,69.54
2022-10-01T07:06:10.034Z,68.43
2022-10-01T07:08:38.816Z,66.94
2022-10-01T07:11:07.271Z,67.83
2022-10-01T07:13:35.603Z,66.75
2022-10-01T07:16:05.153Z,67.10
2022-10-01T07:18:33.697Z,66.20
2022-10-01T07:21:02.057Z,63.03
2022-10-01T07:23:30.436Z,63.36
2022-10-01T07:25:59.243Z,64.52
2022-10-01T07:28:28.441Z,63.64
2022-10-01T07:31:11.562Z,61.70
2022-10-01T07:33:40.945Z,62.80
2022-10-01T07:36:12.517Z,62.14
2022-10-01T07:38:42.029Z,60.71
2022-10-01T07:41:10.651Z,61.12
2022-10-01T07:43:39.587Z,62.23
2022-10-01T07:46:07.929Z,61.11
2022-10-01T07:48:37.089Z,60.04
2022-10-01T07:51:05.487Z,60.98
2022-10-01T07:53:33.828Z,61.26
2022-10-01T07:56:03.134Z,61.21
2022-10-01T07:58:31.490Z,60.13
2022-10-01T08:01:04.281Z,59.49
2022-10-01T08:03:32.830Z,59.96
2022-10-01T08:06:03.718Z,59.63
2022-10-01T08:08:32.216Z,59.91
2022-10-01T08:11:03.637Z,59.56
2022-10-01T08:13:32.043Z,59.39
2022-10-01T08:16:03.997Z,58.43
2022-10-01T08:18:33.828Z,59.50
2022-10-01T08:21:02.514Z,58.63
2022-10-01T08:23:33.649Z,58.59
2022-10-01T08:26:07.898Z,59.51
2022-10-01T08:28:36.449Z,56.89
2022-10-01T08:31:09.314Z,57.22
2022-10-01T08:33:39.150Z,57.38
2022-10-01T08:36:08.845Z,53.89
2022-10-01T08:38:37.915Z,50.71
2022-10-01T08:41:46.800Z,51.05
2022-10-01T08:44:21.906Z,48.70
2022-10-01T08:46:51.567Z,51.34
2022-10-01T08:49:37.973Z,50.62
2022-10-01T08:52:15.962Z,51.57
2022-10-01T08:54:51.650Z,49.33
2022-10-01T08:57:30.053Z,49.91
2022-10-01T09:00:01.565Z,50.25
2022-10-01T09:02:33.545Z,51.46
2022-10-01T09:05:11.205Z,51.39
2022-10-01T09:07:52.078Z,51.48
2022-10-01T09:10:28.823Z,52.21
2022-10-01T09:13:21.602Z,51.82
2022-10-01T09:15:59.945Z,52.68
2022-10-01T09:18:57.885Z,52.63
2022-10-01T09:21:51.491Z,52.54
2022-10-01T09:24:26.815Z,52.67
2022-10-01T09:26:55.529Z,53.08
2022-10-01T09:29:35.915Z,53.22
2022-10-01T09:32:06.159Z,53.88
2022-10-01T09:34:40.298Z,53.78
2022-10-01T09:37:14.988Z,53.13
2022-10-01T09:39:57.804Z,53.71
2022-10-01T09:42:29.796Z,53.53
2022-10-01T09:44:58.657Z,53.67
2022-10-01T09:47:27.348Z,54.04
2022-10-01T09:49:58.947Z,54.14
2022-10-01T09:52:40.067Z,54.06
2022-10-01T09:55:11.348Z,53.43
2022-10-01T09:57:46.571Z,53.76
2022-10-01T10:00:21.029Z,54.46
2022-10-01T10:02:51.853Z,53.42
2022-10-01T10:05:26.380Z,52.85
2022-10-01T10:08:11.457Z,52.08
2022-10-01T10:10:49.335Z,52.25
2022-10-01T10:13:26.874Z,52.49
2022-10-01T10:16:00.116Z,52.42
2022-10-01T10:18:35.658Z,50.08
2022-10-01T10:21:12.173Z,49.45
2022-10-01T10:23:50.174Z,48.81
2022-10-01T10:26:34.978Z,48.56
2022-10-01T10:29:05.701Z,47.26
2022-10-01T10:31:44.256Z,42.34
2022-10-01T10:34:15.397Z,39.72
2022-10-01T10:36:45.972Z,39.28
2022-10-01T10:39:22.301Z,37.92
2022-10-01T10:41:52.504Z,35.71
2022-10-01T10:44:22.795Z,36.04
2022-10-01T10:46:52.513Z,35.62
2022-10-01T10:49:21.904Z,34.68
2022-10-01T10:51:55.591Z,34.62
2022-10-01T10:54:30.456Z,34.59
2022-10-01T10:57:12.248Z,34.29
2022-10-01T10:59:40.780Z,34.79
2022-10-01T11:02:18.301Z,34.82
2022-10-01T11:04:47.700Z,33.93
2022-10-01T11:07:21.820Z,34.50
2022-10-01T11:10:03.846Z,34.95
2022-10-01T11:13:06.921Z,35.43
2022-10-01T11:16:03.402Z,35.65
2022-10-01T11:18:56.212Z,35.68
2022-10-01T11:21:39.574Z,34.47
2022-10-01T11:24:36.116Z,34.56
2022-10-01T11:27:26.760Z,34.86
2022-10-01T11:30:21.136Z,34.78
2022-10-01T11:33:15.298Z,35.12
2022-10-01T11:35:52.789Z,34.75
2022-10-01T11:38:38.334Z,35.63
2022-10-01T11:41:12.314Z,36.23
2022-10-01T11:43:51.360Z,34.96
2022-10-01T11:46:51.848Z,34.75
2022-10-01T11:49:42.821Z,35.15
2022-10-01T11:52:34.022Z,35.05
2022-10-01T11:55:44.106Z,35.09
2022-10-01T11:58:36.985Z,35.89
2022-10-01T12:01:24.532Z,37.14
2022-10-01T12:03:52.777Z,37.49
2022-10-01T12:06:34.215Z,36.63
2022-10-01T12:09:23.567Z,36.16
2022-10-01T12:12:06.946Z,36.19
2022-10-01T12:15:16.703Z,36.04
2022-10-01T12:17:51.823Z,36.57
2022-10-01T12:20:38.218Z,36.08
2022-10-01T12:23:14.143Z,37.00
2022-10-01T12:25:57.017Z,36.84
2022-10-01T12:28:49.143Z,36.35
2022-10-01T12:31:42.175Z,36.90
2022-10-01T12:34:39.552Z,37.23
2022-10-01T12:37:19.962Z,37.11
2022-10-01T12:40:07.106Z,36.99
2022-10-01T12:42:41.156Z,37.10
2022-10-01T12:45:30.464Z,36.72
2022-10-01T12:48:36.182Z,36.79
2022-10-01T12:51:21.420Z,36.41
2022-10-01T12:53:56.240Z,36.44
2022-10-01T12:56:36.626Z,37.01
2022-10-01T12:59:31.923Z,36.63
2022-10-01T13:02:13.520Z,36.23
2022-10-01T13:04:59.207Z,37.00
2022-10-01T13:07:33.536Z,36.49
2022-10-01T13:10:14.724Z,36.65
2022-10-01T13:13:17.007Z,36.92
2022-10-01T13:15:49.764Z,37.19
2022-10-01T13:18:18.023Z,36.43
2022-10-01T13:20:54.447Z,37.18
2022-10-01T13:23:44.017Z,36.89
2022-10-01T13:26:12.259Z,37.11
2022-10-01T13:29:07.388Z,37.24
2022-10-01T13:31:52.011Z,37.86
2022-10-01T13:34:41.821Z,38.41
2022-10-01T13:37:17.184Z,37.99
2022-10-01T13:39:47.341Z,39.11
2022-10-01T13:42:27.750Z,39.08
2022-10-01T13:45:04.950Z,39.46
2022-10-01T13:47:41.427Z,39.98
2022-10-01T13:50:25.038Z,40.36
2022-10-01T13:53:06.716Z,40.32
2022-10-01T13:55:41.030Z,41.44
2022-10-01T13:58:30.880Z,41.92
2022-10-01T14:01:03.034Z,41.80
2022-10-01T14:03:39.459Z,41.50
2022-10-01T14:06:16.959Z,42.12
2022-10-01T14:08:51.474Z,42.24
2022-10-01T14:11:45.717Z,42.44
2022-10-01T14:14:38.471Z,42.53
2022-10-01T14:17:09.563Z,42.58
2022-10-01T14:19:45.752Z,43.14
2022-10-01T14:22:14.009Z,43.71
2022-10-01T14:25:03.371Z,43.65
2022-10-01T14:27:57.727Z,43.83
2022-10-01T14:30:52.500Z,44.24
2022-10-01T14:33:39.142Z,44.38
2022-10-01T14:36:20.259Z,45.06
2022-10-01T14:38:48.611Z,45.35
2022-10-01T14:41:24.152Z,45.72
2022-10-01T14:43:52.448Z,45.91
2022-10-01T14:46:20.801Z,45.85
2022-10-01T14:49:01.016Z,45.83
2022-10-01T14:51:31.450Z,45.97
2022-10-01T14:54:00.756Z,46.13
2022-10-01T14:56:29.700Z,46.50
2022-10-01T14:59:07.430Z,46.46
2022-10-01T15:01:35.806Z,46.37
2022-10-01T15:04:14.885Z,46.48
2022-10-01T15:06:43.537Z,46.56
2022-10-01T15:09:18.933Z,46.81
2022-10-01T15:11:50.539Z,46.96
2022-10-01T15:14:24.515Z,47.00
2022-10-01T15:16:53.086Z,47.26
2022-10-01T15:19:23.539Z,47.35
2022-10-01T15:21:52.025Z,47.61
2022-10-01T15:24:42.536Z,47.72
2022-10-01T15:27:13.842Z,47.84
2022-10-01T15:29:43.984Z,48.25
2022-10-01T15:32:17.800Z,48.43
2022-10-01T15:34:55.330Z,48.95
2022-10-01T15:37:38.354Z,49.19
2022-10-01T15:40:20.315Z,49.78
2022-10-01T15:43:07.544Z,50.38
2022-10-01T15:45:36.360Z,50.89
2022-10-01T15:48:04.767Z,51.11
2022-10-01T15:50:37.363Z,51.43
2022-10-01T15:53:23.667Z,51.68
2022-10-01T15:55:57.183Z,52.06
2022-10-01T15:58:31.935Z,52.15
2022-10-01T16:01:10.684Z,52.38
2022-10-01T16:03:42.612Z,52.48
2022-10-01T16:06:25.530Z,52.59
2022-10-01T16:09:16.182Z,52.50
2022-10-01T16:12:04.401Z,52.64
2022-10-01T16:14:43.961Z,52.93
2022-10-01T16:17:18.465Z,52.65
2022-10-01T16:20:15.710Z,52.83
2022-10-01T16:22:44.152Z,52.73
2022-10-01T16:25:21.579Z,52.85
2022-10-01T16:28:04.556Z,53.02
2022-10-01T16:30:34.336Z,53.68
2022-10-01T16:33:05.467Z,55.64
2022-10-01T16:35:40.890Z,57.57
2022-10-01T16:38:09.912Z,58.24
2022-10-01T16:40:44.121Z,60.64
2022-10-01T16:43:18.914Z,61.53
2022-10-01T16:45:47.273Z,63.52
2022-10-01T16:48:23.160Z,63.79
2022-10-01T16:50:54.422Z,64.38
2022-10-01T16:53:25.059Z,66.02
2022-10-01T16:55:54.959Z,67.13
2022-10-01T16:58:23.352Z,68.24
2022-10-01T17:00:52.109Z,69.74
2022-10-01T17:03:25.236Z,70.83
2022-10-01T17:05:53.633Z,71.94
2022-10-01T17:08:21.941Z,73.55
2022-10-01T17:10:58.779Z,74.17
2022-10-01T17:13:32.986Z,77.33
2022-10-01T17:16:01.829Z,77.68
2022-10-01T17:18:30.141Z,75.44
2022-10-01T17:21:05.806Z,75.03
2022-10-01T17:23:35.825Z,75.53
2022-10-01T17:26:08.800Z,76.43
2022-10-01T17:28:37.083Z,76.18
2022-10-01T17:31:08.761Z,76.97
2022-10-01T17:33:38.148Z,78.38
2022-10-01T17:36:08.325Z,78.52
2022-10-01T17:38:37.404Z,78.84
2022-10-01T17:41:06.147Z,78.77
2022-10-01T17:43:34.626Z,78.80
2022-10-01T17:46:03.250Z,79.07
2022-10-01T17:48:31.596Z,79.86
2022-10-01T17:51:01.102Z,80.85
2022-10-01T17:53:35.083Z,81.39
2022-10-01T17:56:18.247Z,82.05
2022-10-01T17:58:46.928Z,82.78
2022-10-01T18:01:20.116Z,83.95
2022-10-01T18:03:54.232Z,84.02
2022-10-01T18:06:24.519Z,84.50
2022-10-01T18:08:56.198Z,85.08
2022-10-01T18:11:28.310Z,85.68
2022-10-01T18:13:56.897Z,85.87
2022-10-01T18:16:26.211Z,86.33
2022-10-01T18:21:49.139Z,86.68
2022-10-01T18:24:18.057Z,87.06
2022-10-01T18:26:46.665Z,86.33
2022-10-01T18:29:24.310Z,86.42
2022-10-01T18:32:07.657Z,87.22
2022-10-01T18:34:42.163Z,86.64
2022-10-01T18:37:28.886Z,85.90
2022-10-01T18:40:06.103Z,85.56
2022-10-01T18:42:46.251Z,85.43
2022-10-01T18:45:18.279Z,85.53
2022-10-01T18:47:52.458Z,85.76
2022-10-01T18:50:49.411Z,85.64
2022-10-01T18:53:38.273Z,85.06
2022-10-01T18:56:18.700Z,85.24
2022-10-01T18:59:33.168Z,85.53
2022-10-01T19:02:40.016Z,85.16
2022-10-01T19:05:20.250Z,85.58
2022-10-01T19:07:48.503Z,85.49
2022-10-01T19:10:51.981Z,84.85
2022-10-01T19:13:30.590Z,84.18
2022-10-01T19:16:14.235Z,84.38
2022-10-01T19:19:16.893Z,84.55
2022-10-01T19:21:58.575Z,84.33
2022-10-01T19:24:41.274Z,83.77
2022-10-01T19:27:30.856Z,83.91
2022-10-01T19:30:02.097Z,83.97
2022-10-01T19:32:42.564Z,83.91
2022-10-01T19:35:17.232Z,84.49
2022-10-01T19:37:52.731Z,84.41
2022-10-01T19:40:30.367Z,84.61
2022-10-01T19:43:18.081Z,84.81
2022-10-01T19:46:05.003Z,84.57
2022-10-01T19:48:51.324Z,85.63
2022-10-01T19:51:23.967Z,85.19
2022-10-01T19:54:02.282Z,84.90
2022-10-01T19:56:33.854Z,84.94
2022-10-01T19:59:11.229Z,86.12
2022-10-01T20:01:46.712Z,86.68
2022-10-01T20:04:31.377Z,87.50
2022-10-01T20:07:37.161Z,88.28
2022-10-01T20:10:11.660Z,88.83
2022-10-01T20:12:44.879Z,88.78
2022-10-01T20:15:14.875Z,88.80
2022-10-01T20:17:46.406Z,88.20
2022-10-01T20:20:21.121Z,87.59
2022-10-01T20:23:01.875Z,87.24
2022-10-01T20:25:35.802Z,86.97
2022-10-01T20:28:25.671Z,86.97
2022-10-01T20:30:58.372Z,86.50
2022-10-01T20:33:43.261Z,86.07
2022-10-01T20:36:22.132Z,86.44
2022-10-01T20:39:04.067Z,86.28
2022-10-01T20:41:42.577Z,86.18
2022-10-01T20:44:17.452Z,86.25
2022-10-01T20:46:50.490Z,86.15
2022-10-01T20:49:43.821Z,86.07
2022-10-01T20:52:34.578Z,85.92
2022-10-01T20:55:12.970Z,85.77
2022-10-01T20:57:49.671Z,85.46
2022-10-01T21:00:21.322Z,85.60
2022-10-01T21:02:59.481Z,85.28
2022-10-01T21:05:37.698Z,84.81
2022-10-01T21:08:18.092Z,84.42
2022-10-01T21:10:59.800Z,84.08
2022-10-01T21:13:31.192Z,83.66
2022-10-01T21:16:18.111Z,83.35
2022-10-01T21:19:14.316Z,83.06
2022-10-01T21:22:07.697Z,82.57
2022-10-01T21:25:01.690Z,82.12
2022-10-01T21:27:35.230Z,81.94
2022-10-01T21:30:16.240Z,81.56
2022-10-01T21:33:03.256Z,81.41
2022-10-01T21:35:50.239Z,81.32
2022-10-01T21:38:29.761Z,81.28
2022-10-01T21:41:24.387Z,81.16
2022-10-01T21:44:27.856Z,80.88
2022-10-01T21:47:23.699Z,79.51
2022-10-01T21:50:15.536Z,79.43
2022-10-01T21:53:02.366Z,79.22
2022-10-01T21:56:14.008Z,79.51
2022-10-01T21:59:07.638Z,79.46
2022-10-01T22:02:11.110Z,79.30
2022-10-01T22:04:46.127Z,78.91
2022-10-01T22:07:28.291Z,78.91
2022-10-01T22:10:04.678Z,78.60
2022-10-01T22:12:37.471Z,78.49
2022-10-01T22:15:21.465Z,78.66
2022-10-01T22:17:53.932Z,78.65
2022-10-01T22:20:31.081Z,78.68
2022-10-01T22:23:09.156Z,78.62
2022-10-01T22:25:49.031Z,78.81
2022-10-01T22:28:23.220Z,79.56
2022-10-01T22:30:54.179Z,79.93
2022-10-01T22:33:32.363Z,79.68
2022-10-01T22:36:11.996Z,80.53
2022-10-01T22:38:57.006Z,81.35
2022-10-01T22:41:37.695Z,82.57
2022-10-01T22:44:16.812Z,82.73
2022-10-01T22:47:07.777Z,84.21
2022-10-01T22:50:02.109Z,84.47
2022-10-01T22:53:03.731Z,83.62
2022-10-01T22:55:50.237Z,84.27
2022-10-01T22:58:27.904Z,85.28
2022-10-01T23:01:21.999Z,85.99
2022-10-01T23:04:16.577Z,86.17
2022-10-01T23:07:09.098Z,87.86
2022-10-01T23:10:01.092Z,87.55
2022-10-01T23:12:41.350Z,87.58
2022-10-01T23:15:24.840Z,87.16
2022-10-01T23:18:05.390Z,86.93
2022-10-01T23:20:43.861Z,87.36
2022-10-01T23:23:32.293Z,86.90
2022-10-01T23:26:49.156Z,86.43
2022-10-01T23:29:48.472Z,86.63
2022-10-01T23:32:22.826Z,86.21
2022-10-01T23:35:16.402Z,86.77
2022-10-01T23:38:15.765Z,86.35
2022-10-01T23:40:48.385Z,86.58
2022-10-01T23:43:22.297Z,86.26
2022-10-01T23:46:17.876Z,85.74
2022-10-01T23:49:04.147Z,85.48
2022-10-01T23:51:48.751Z,85.41
2022-10-01T23:54:48.492Z,85.10
2022-10-01T23:57:24.216Z,85.28
